createdAt,value
2023-01-07T00:01:25.771Z,10.63
2023-01-07T00:03:54.406Z,10.65
2023-01-07T00:06:28.308Z,10.64
2023-01-07T00:08:57.050Z,10.62
2023-01-07T00:11:27.883Z,10.61
2023-01-07T00:13:56.785Z,10.60
2023-01-07T00:16:27.551Z,10.56
2023-01-07T00:18:56.679Z,10.52
2023-01-07T00:21:25.498Z,10.52
2023-01-07T00:23:58.554Z,10.49
2023-01-07T00:26:29.606Z,10.51
2023-01-07T00:28:57.442Z,10.52
2023-01-07T00:31:28.632Z,10.53
2023-01-07T00:33:55.720Z,10.56
2023-01-07T00:36:26.515Z,10.60
2023-01-07T00:39:19.342Z,10.65
2023-01-07T00:42:06.447Z,10.64
2023-01-07T00:44:34.086Z,10.60
2023-01-07T00:47:01.622Z,10.57
2023-01-07T00:49:28.568Z,10.53
2023-01-07T00:51:55.522Z,10.55
2023-01-07T00:54:22.619Z,10.55
2023-01-07T00:56:49.543Z,10.54
2023-01-07T00:59:16.403Z,10.54
2023-01-07T01:01:43.451Z,10.54
2023-01-07T01:04:10.423Z,10.53
2023-01-07T01:06:37.340Z,10.53
2023-01-07T01:09:04.375Z,10.51
2023-01-07T01:11:31.225Z,10.49
2023-01-07T01:13:58.035Z,10.50
2023-01-07T01:16:25.185Z,10.49
2023-01-07T01:18:52.062Z,10.50
2023-01-07T01:21:19.195Z,10.52
2023-01-07T01:23:46.293Z,10.53
2023-01-07T01:26:16.491Z,10.52
2023-01-07T01:28:44.321Z,10.53
2023-01-07T01:31:12.190Z,10.54
2023-01-07T01:33:39.260Z,10.58
2023-01-07T01:36:10.071Z,10.58
2023-01-07T01:38:37.689Z,10.58
2023-01-07T01:41:05.870Z,10.55
2023-01-07T01:43:40.427Z,10.55
2023-01-07T01:46:38.189Z,10.56
2023-01-07T01:49:22.176Z,10.56
2023-01-07T01:52:19.605Z,10.54
2023-01-07T01:54:53.461Z,10.50
2023-01-07T01:57:22.685Z,10.51
2023-01-07T01:59:51.951Z,10.50
2023-01-07T02:02:28.208Z,10.51
2023-01-07T02:04:56.381Z,10.48
2023-01-07T02:07:23.344Z,10.48
2023-01-07T02:10:10.307Z,10.49
2023-01-07T02:13:03.032Z,10.51
2023-01-07T02:15:37.307Z,10.53
2023-01-07T02:18:12.305Z,10.54
2023-01-07T02:20:41.686Z,10.53
2023-01-07T02:23:42.412Z,10.54
2023-01-07T02:26:36.890Z,10.53
2023-01-07T02:29:34.771Z,10.53
2023-01-07T02:32:42.315Z,10.50
2023-01-07T02:35:28.715Z,10.52
2023-01-07T02:38:40.749Z,10.52
2023-01-07T02:41:36.360Z,10.54
2023-01-07T02:44:09.751Z,10.56
2023-01-07T02:46:57.006Z,10.55
2023-01-07T02:49:24.003Z,10.54
2023-01-07T02:51:51.867Z,10.52
2023-01-07T02:54:26.331Z,10.47
2023-01-07T02:57:21.182Z,10.44
2023-01-07T03:00:28.425Z,10.44
2023-01-07T03:03:49.473Z,10.44
2023-01-07T03:06:48.959Z,10.47
2023-01-07T03:09:55.645Z,10.50
2023-01-07T03:12:41.344Z,10.50
2023-01-07T03:15:18.526Z,10.50
2023-01-07T03:18:08.285Z,10.51
2023-01-07T03:20:38.944Z,10.53
2023-01-07T03:23:10.309Z,10.57
2023-01-07T03:25:44.248Z,10.61
2023-01-07T03:28:14.524Z,10.61
2023-01-07T03:30:42.180Z,10.64
2023-01-07T03:33:58.194Z,10.69
2023-01-07T03:36:33.046Z,10.66
2023-01-07T03:39:01.642Z,10.61
2023-01-07T03:41:47.280Z,10.59
2023-01-07T03:44:14.185Z,10.52
2023-01-07T03:46:41.066Z,10.46
2023-01-07T03:49:08.213Z,10.46
2023-01-07T03:51:35.113Z,10.42
2023-01-07T03:54:01.897Z,10.46
2023-01-07T03:56:28.733Z,10.49
2023-01-07T03:58:55.631Z,10.52
2023-01-07T04:01:22.748Z,10.54
2023-01-07T04:03:49.691Z,10.56
2023-01-07T04:06:16.604Z,10.60
2023-01-07T04:08:43.496Z,10.61
2023-01-07T04:11:10.375Z,10.56
2023-01-07T04:13:37.224Z,10.49
2023-01-07T04:16:04.511Z,10.49
2023-01-07T04:18:31.391Z,10.48
2023-01-07T04:20:58.222Z,10.42
2023-01-07T04:23:25.094Z,10.42
2023-01-07T04:25:51.903Z,10.43
2023-01-07T04:28:18.744Z,10.43
2023-01-07T04:30:45.645Z,10.45
2023-01-07T04:33:12.546Z,10.45
2023-01-07T04:35:40.253Z,10.48
2023-01-07T04:38:07.666Z,10.51
2023-01-07T04:40:34.533Z,10.49
2023-01-07T04:43:01.379Z,10.47
2023-01-07T04:45:28.181Z,10.46
2023-01-07T04:47:56.429Z,10.44
2023-01-07T04:50:24.210Z,10.43
2023-01-07T04:52:51.385Z,10.44
2023-01-07T04:55:18.264Z,10.44
2023-01-07T04:57:45.237Z,10.49
2023-01-07T05:00:13.057Z,10.50
2023-01-07T05:02:40.025Z,10.49
2023-01-07T05:05:07.287Z,10.48
2023-01-07T05:07:34.167Z,10.46
2023-01-07T05:10:01.109Z,10.49
2023-01-07T05:12:27.935Z,10.51
2023-01-07T05:14:54.798Z,10.47
2023-01-07T05:17:21.628Z,10.48
2023-01-07T05:19:48.474Z,10.48
2023-01-07T05:22:15.393Z,10.41
2023-01-07T05:24:42.241Z,10.40
2023-01-07T05:27:09.249Z,10.41
2023-01-07T05:29:36.185Z,10.42
2023-01-07T05:32:03.083Z,10.41
2023-01-07T05:34:30.651Z,10.39
2023-01-07T05:36:57.750Z,10.40
2023-01-07T05:39:24.652Z,10.33
2023-01-07T05:41:51.561Z,10.35
2023-01-07T05:44:18.384Z,10.33
2023-01-07T05:46:45.221Z,10.30
2023-01-07T05:49:13.155Z,10.31
2023-01-07T05:51:40.013Z,10.33
2023-01-07T05:54:07.348Z,10.31
2023-01-07T05:56:34.314Z,10.29
2023-01-07T05:59:01.532Z,10.28
2023-01-07T06:01:28.549Z,10.24
2023-01-07T06:03:55.501Z,10.26
2023-01-07T06:06:22.363Z,10.26
2023-01-07T06:08:49.259Z,10.23
2023-01-07T06:11:16.164Z,10.24
2023-01-07T06:13:43.049Z,10.24
2023-01-07T06:16:10.757Z,10.24
2023-01-07T06:18:37.596Z,10.25
2023-01-07T06:21:04.808Z,10.24
2023-01-07T06:23:31.675Z,10.25
2023-01-07T06:25:58.620Z,10.24
2023-01-07T06:28:25.571Z,10.25
2023-01-07T06:30:52.425Z,10.23
2023-01-07T06:33:19.380Z,10.24
2023-01-07T06:35:46.665Z,10.24
2023-01-07T06:38:13.666Z,10.26
2023-01-07T06:40:40.714Z,10.29
2023-01-07T06:43:07.643Z,10.30
2023-01-07T06:45:34.528Z,10.31
2023-01-07T06:48:01.354Z,10.30
2023-01-07T06:50:28.258Z,10.32
2023-01-07T06:52:56.795Z,10.33
2023-01-07T06:55:23.709Z,10.30
2023-01-07T06:57:50.596Z,10.27
2023-01-07T07:00:18.641Z,10.27
2023-01-07T07:02:46.084Z,10.30
2023-01-07T07:05:12.980Z,10.29
2023-01-07T07:07:39.843Z,10.32
2023-01-07T07:10:08.335Z,10.35
2023-01-07T07:12:36.661Z,10.36
2023-01-07T07:15:05.675Z,10.37
2023-01-07T07:17:32.614Z,10.35
2023-01-07T07:19:59.515Z,10.34
2023-01-07T07:22:26.427Z,10.32
2023-01-07T07:24:53.258Z,10.34
2023-01-07T07:27:20.168Z,10.34
2023-01-07T07:29:47.043Z,10.34
2023-01-07T07:32:13.919Z,10.33
2023-01-07T07:34:41.059Z,10.32
2023-01-07T07:37:07.934Z,10.31
2023-01-07T07:39:34.928Z,10.34
2023-01-07T07:42:05.624Z,10.33
2023-01-07T07:44:32.624Z,10.25
2023-01-07T07:46:59.485Z,10.24
2023-01-07T07:49:26.431Z,10.20
2023-01-07T07:51:53.518Z,10.18
2023-01-07T07:54:21.813Z,10.19
2023-01-07T07:56:50.875Z,10.19
2023-01-07T07:59:17.773Z,10.21
2023-01-07T08:01:44.786Z,10.23
2023-01-07T08:04:11.739Z,10.21
2023-01-07T08:06:38.569Z,10.20
2023-01-07T08:09:05.412Z,10.15
2023-01-07T08:11:32.339Z,10.12
2023-01-07T08:13:59.218Z,10.14
2023-01-07T08:16:26.641Z,10.14
2023-01-07T08:18:53.592Z,10.13
2023-01-07T08:21:20.609Z,10.14
2023-01-07T08:23:47.472Z,10.15
2023-01-07T08:26:14.298Z,10.14
2023-01-07T08:28:41.343Z,10.17
2023-01-07T08:31:08.597Z,10.24
2023-01-07T08:33:38.518Z,10.25
2023-01-07T08:36:18.108Z,10.25
2023-01-07T08:38:52.220Z,10.28
2023-01-07T08:41:23.463Z,10.28
2023-01-07T08:43:50.546Z,10.33
2023-01-07T08:46:17.539Z,10.39
2023-01-07T08:48:44.468Z,10.42
2023-01-07T08:51:11.273Z,10.44
2023-01-07T08:53:38.115Z,10.45
2023-01-07T08:56:05.058Z,10.47
2023-01-07T08:58:31.894Z,10.51
2023-01-07T09:01:05.596Z,10.54
2023-01-07T09:03:33.130Z,10.57
2023-01-07T09:06:00.136Z,10.59
2023-01-07T09:08:27.052Z,10.62
2023-01-07T09:10:53.856Z,10.63
2023-01-07T09:13:20.725Z,10.65
2023-01-07T09:15:47.635Z,10.64
2023-01-07T09:18:14.508Z,10.66
2023-01-07T09:20:41.331Z,10.73
2023-01-07T09:23:08.167Z,10.76
2023-01-07T09:25:35.073Z,10.78
2023-01-07T09:28:01.961Z,10.76
2023-01-07T09:30:28.800Z,10.82
2023-01-07T09:32:55.650Z,10.90
2023-01-07T09:35:22.601Z,11.00
2023-01-07T09:37:51.599Z,11.04
2023-01-07T09:40:35.031Z,11.13
2023-01-07T09:43:59.791Z,11.20
2023-01-07T09:46:18.230Z,11.29
2023-01-07T09:48:51.687Z,11.38
2023-01-07T09:52:07.814Z,11.43
2023-01-07T09:54:37.569Z,11.50
2023-01-07T09:57:05.086Z,11.50
2023-01-07T09:59:32.384Z,11.57
2023-01-07T10:02:22.374Z,11.72
2023-01-07T10:05:02.597Z,11.71
2023-01-07T10:08:30.836Z,11.74
2023-01-07T10:11:03.492Z,11.83
2023-01-07T10:13:52.747Z,11.87
2023-01-07T10:17:07.496Z,11.87
2023-01-07T10:19:50.845Z,11.82
2023-01-07T10:22:29.817Z,11.78
2023-01-07T10:25:14.857Z,11.79
2023-01-07T10:27:46.277Z,11.85
2023-01-07T10:30:27.151Z,11.87
2023-01-07T10:33:11.375Z,12.00
2023-01-07T10:35:41.126Z,11.91
2023-01-07T10:38:19.904Z,11.91
2023-01-07T10:40:46.624Z,11.93
2023-01-07T10:43:48.344Z,11.97
2023-01-07T10:46:30.114Z,11.88
2023-01-07T10:49:37.603Z,11.86
2023-01-07T10:52:31.503Z,11.93
2023-01-07T10:55:21.966Z,11.95
2023-01-07T10:57:49.271Z,11.97
2023-01-07T11:00:17.826Z,11.99
2023-01-07T11:02:59.050Z,12.02
2023-01-07T11:05:37.623Z,11.99
2023-01-07T11:08:12.910Z,11.96
2023-01-07T11:10:40.075Z,11.97
2023-01-07T11:13:19.716Z,11.94
2023-01-07T11:15:56.143Z,11.91
2023-01-07T11:18:52.539Z,11.91
2023-01-07T11:21:44.682Z,11.93
2023-01-07T11:24:27.076Z,11.97
2023-01-07T11:27:20.118Z,11.96
2023-01-07T11:30:04.604Z,11.97
2023-01-07T11:32:38.467Z,11.97
2023-01-07T11:35:23.095Z,12.04
2023-01-07T11:37:50.486Z,12.02
2023-01-07T11:40:20.979Z,12.03
2023-01-07T11:43:02.130Z,12.07
2023-01-07T11:45:36.688Z,12.05
2023-01-07T11:48:22.202Z,12.01
2023-01-07T11:50:57.822Z,12.06
2023-01-07T11:53:50.439Z,12.02
2023-01-07T11:56:33.531Z,12.03
2023-01-07T11:59:13.320Z,12.00
2023-01-07T12:01:52.573Z,12.00
2023-01-07T12:04:27.615Z,12.04
2023-01-07T12:07:02.264Z,12.02
2023-01-07T12:09:31.991Z,12.05
2023-01-07T12:12:27.844Z,12.04
2023-01-07T12:14:55.803Z,12.10
2023-01-07T12:17:25.207Z,12.11
2023-01-07T12:20:24.737Z,12.05
2023-01-07T12:23:38.672Z,12.06
2023-01-07T12:26:21.075Z,12.04
2023-01-07T12:29:07.481Z,12.03
2023-01-07T12:31:44.656Z,12.04
2023-01-07T12:34:41.474Z,12.08
2023-01-07T12:37:36.042Z,12.07
2023-01-07T12:40:16.213Z,12.13
2023-01-07T12:42:51.108Z,12.18
2023-01-07T12:46:00.247Z,12.26
2023-01-07T12:48:38.997Z,12.25
2023-01-07T12:51:19.932Z,12.27
2023-01-07T12:54:19.919Z,12.27
2023-01-07T12:57:07.384Z,12.25
2023-01-07T12:59:46.544Z,12.26
2023-01-07T13:02:35.782Z,12.32
2023-01-07T13:05:16.570Z,12.35
2023-01-07T13:08:05.886Z,12.32
2023-01-07T13:10:43.272Z,12.34
2023-01-07T13:13:21.279Z,12.34
2023-01-07T13:15:49.282Z,12.39
2023-01-07T13:18:21.154Z,12.38
2023-01-07T13:21:14.264Z,12.35
2023-01-07T13:23:56.432Z,12.40
2023-01-07T13:26:45.109Z,12.33
2023-01-07T13:29:29.813Z,12.35
2023-01-07T13:32:33.859Z,12.35
2023-01-07T13:35:37.058Z,12.39
2023-01-07T13:38:12.844Z,12.37
2023-01-07T13:41:18.977Z,12.34
2023-01-07T13:44:07.364Z,12.30
2023-01-07T13:46:39.517Z,12.34
2023-01-07T13:49:06.645Z,12.33
2023-01-07T13:51:37.021Z,12.42
2023-01-07T13:54:04.516Z,12.43
2023-01-07T13:56:36.221Z,12.44
2023-01-07T13:59:03.576Z,12.47
2023-01-07T14:01:33.245Z,12.53
2023-01-07T14:04:08.567Z,12.54
2023-01-07T14:06:43.807Z,12.60
2023-01-07T14:09:15.916Z,12.63
2023-01-07T14:12:04.696Z,12.62
2023-01-07T14:14:38.163Z,12.64
2023-01-07T14:17:26.154Z,12.63
2023-01-07T14:20:21.136Z,12.57
2023-01-07T14:23:05.661Z,12.49
2023-01-07T14:25:58.330Z,12.44
2023-01-07T14:28:57.703Z,12.34
2023-01-07T14:31:28.430Z,12.34
2023-01-07T14:34:20.076Z,12.32
2023-01-07T14:37:02.349Z,12.25
2023-01-07T14:39:45.870Z,12.23
2023-01-07T14:42:18.853Z,12.19
2023-01-07T14:44:50.788Z,12.16
2023-01-07T14:47:43.885Z,12.13
2023-01-07T14:50:51.119Z,12.11
2023-01-07T14:54:00.196Z,12.11
2023-01-07T14:56:39.855Z,12.10
2023-01-07T14:59:46.178Z,12.07
2023-01-07T15:02:34.671Z,12.03
2023-01-07T15:05:45.023Z,12.03
2023-01-07T15:08:39.206Z,12.02
2023-01-07T15:11:31.498Z,11.97
2023-01-07T15:14:48.488Z,11.91
2023-01-07T15:17:16.520Z,11.88
2023-01-07T15:19:44.322Z,11.86
2023-01-07T15:22:53.792Z,11.85
2023-01-07T15:25:33.065Z,11.81
2023-01-07T15:28:15.869Z,11.77
2023-01-07T15:31:05.208Z,11.72
2023-01-07T15:34:15.213Z,11.68
2023-01-07T15:36:51.982Z,11.63
2023-01-07T15:39:31.150Z,11.59
2023-01-07T15:41:58.707Z,11.56
2023-01-07T15:44:40.465Z,11.52
2023-01-07T15:47:34.520Z,11.49
2023-01-07T15:50:28.291Z,11.45
2023-01-07T15:53:16.719Z,11.41
2023-01-07T15:55:51.879Z,11.36
2023-01-07T15:58:39.329Z,11.29
2023-01-07T16:01:08.405Z,11.25
2023-01-07T16:03:39.040Z,11.22
2023-01-07T16:06:35.887Z,11.15
2023-01-07T16:09:18.819Z,11.10
2023-01-07T16:11:45.880Z,11.08
2023-01-07T16:14:25.750Z,11.07
2023-01-07T16:17:25.788Z,11.01
2023-01-07T16:20:30.236Z,10.97
2023-01-07T16:23:19.220Z,10.91
2023-01-07T16:26:04.950Z,10.87
2023-01-07T16:28:52.059Z,10.85
2023-01-07T16:31:23.268Z,10.79
2023-01-07T16:33:53.349Z,10.79
2023-01-07T16:36:25.276Z,10.75
2023-01-07T16:38:56.939Z,10.73
2023-01-07T16:41:26.902Z,10.70
2023-01-07T16:44:00.853Z,10.70
2023-01-07T16:46:35.835Z,10.77
2023-01-07T16:49:11.362Z,10.76
2023-01-07T16:52:02.332Z,10.75
2023-01-07T16:54:32.336Z,10.76
2023-01-07T16:57:12.597Z,10.70
2023-01-07T16:59:46.094Z,10.65
2023-01-07T17:02:43.324Z,10.61
2023-01-07T17:05:18.455Z,10.59
2023-01-07T17:08:02.379Z,10.57
2023-01-07T17:10:40.695Z,10.58
2023-01-07T17:13:32.960Z,10.57
2023-01-07T17:16:29.194Z,10.53
2023-01-07T17:18:58.182Z,10.54
2023-01-07T17:21:43.619Z,10.54
2023-01-07T17:24:46.204Z,10.56
2023-01-07T17:27:27.463Z,10.63
2023-01-07T17:29:54.785Z,10.63
2023-01-07T17:32:24.101Z,10.63
2023-01-07T17:34:51.068Z,10.60
2023-01-07T17:37:18.214Z,10.59
2023-01-07T17:39:45.135Z,10.58
2023-01-07T17:42:48.024Z,10.55
2023-01-07T17:45:18.810Z,10.54
2023-01-07T17:47:47.815Z,10.57
2023-01-07T17:50:16.701Z,10.56
2023-01-07T17:52:50.481Z,10.55
2023-01-07T17:55:31.090Z,10.55
2023-01-07T17:57:58.334Z,10.65
2023-01-07T18:00:27.875Z,10.68
2023-01-07T18:02:54.829Z,10.73
2023-01-07T18:05:24.688Z,10.71
2023-01-07T18:07:53.027Z,10.73
2023-01-07T18:10:28.915Z,10.71
2023-01-07T18:12:55.836Z,10.69
2023-01-07T18:15:27.853Z,10.66
2023-01-07T18:17:54.735Z,10.68
2023-01-07T18:20:23.033Z,10.68
2023-01-07T18:22:50.471Z,10.68
2023-01-07T18:25:22.469Z,10.67
2023-01-07T18:27:53.295Z,10.67
2023-01-07T18:30:22.255Z,10.65
2023-01-07T18:32:52.842Z,10.67
2023-01-07T18:35:20.068Z,10.63
2023-01-07T18:37:50.781Z,10.63
2023-01-07T18:40:18.381Z,10.65
2023-01-07T18:42:45.442Z,10.66
2023-01-07T18:45:13.063Z,10.64
2023-01-07T18:47:39.979Z,10.58
2023-01-07T18:50:08.352Z,10.57
2023-01-07T18:52:38.317Z,10.54
2023-01-07T18:55:06.292Z,10.51
2023-01-07T18:57:33.203Z,10.48
2023-01-07T19:00:00.121Z,10.51
2023-01-07T19:02:26.970Z,10.51
2023-01-07T19:04:53.801Z,10.50
2023-01-07T19:07:21.702Z,10.51
2023-01-07T19:09:48.784Z,10.48
2023-01-07T19:12:15.649Z,10.47
2023-01-07T19:14:42.637Z,10.41
2023-01-07T19:17:09.603Z,10.37
2023-01-07T19:19:47.465Z,10.39
2023-01-07T19:22:16.097Z,10.42
2023-01-07T19:24:43.349Z,10.43
2023-01-07T19:27:10.822Z,10.44
2023-01-07T19:29:37.899Z,10.43
2023-01-07T19:32:05.131Z,10.48
2023-01-07T19:34:32.133Z,10.50
2023-01-07T19:36:58.970Z,10.53
2023-01-07T19:39:26.078Z,10.59
2023-01-07T19:41:52.885Z,10.58
2023-01-07T19:44:19.789Z,10.59
2023-01-07T19:46:46.828Z,10.59
2023-01-07T19:49:13.675Z,10.56
2023-01-07T19:51:42.324Z,10.53
2023-01-07T19:54:15.894Z,10.51
2023-01-07T19:56:43.596Z,10.56
2023-01-07T19:59:10.807Z,10.58
2023-01-07T20:01:38.801Z,10.61
2023-01-07T20:04:08.059Z,10.57
2023-01-07T20:06:41.151Z,10.55
2023-01-07T20:09:12.193Z,10.53
2023-01-07T20:11:40.487Z,10.49
2023-01-07T20:14:07.723Z,10.47
2023-01-07T20:16:36.743Z,10.48
2023-01-07T20:19:04.723Z,10.43
2023-01-07T20:21:32.406Z,10.37
2023-01-07T20:23:59.475Z,10.34
2023-01-07T20:26:32.403Z,10.31
2023-01-07T20:29:00.877Z,10.26
2023-01-07T20:31:30.035Z,10.19
2023-01-07T20:33:57.645Z,10.13
2023-01-07T20:36:29.014Z,10.11
2023-01-07T20:38:55.927Z,10.10
2023-01-07T20:41:26.003Z,10.09
2023-01-07T20:43:58.961Z,10.03
2023-01-07T20:46:28.317Z,10.00
2023-01-07T20:48:56.264Z,9.99
2023-01-07T20:51:23.400Z,9.96
2023-01-07T20:53:50.481Z,9.94
2023-01-07T20:56:21.123Z,9.96
2023-01-07T20:58:49.091Z,9.96
2023-01-07T21:01:19.938Z,9.97
2023-01-07T21:03:47.105Z,9.98
2023-01-07T21:06:19.748Z,9.98
2023-01-07T21:08:47.889Z,9.99
2023-01-07T21:11:18.924Z,10.03
2023-01-07T21:13:46.700Z,10.05
2023-01-07T21:16:15.934Z,10.04
2023-01-07T21:18:43.297Z,10.06
2023-01-07T21:21:17.719Z,10.10
2023-01-07T21:23:48.741Z,10.11
2023-01-07T21:26:16.510Z,10.15
2023-01-07T21:28:44.383Z,10.16
2023-01-07T21:31:15.357Z,10.21
2023-01-07T21:33:43.384Z,10.23
2023-01-07T21:36:19.554Z,10.28
2023-01-07T21:38:51.285Z,10.27
2023-01-07T21:41:18.142Z,10.24
2023-01-07T21:43:45.262Z,10.21
2023-01-07T21:46:13.301Z,10.22
2023-01-07T21:48:43.700Z,10.20
2023-01-07T21:51:26.920Z,10.18
2023-01-07T21:53:58.798Z,10.18
2023-01-07T21:56:28.738Z,10.13
2023-01-07T21:58:55.676Z,10.11
2023-01-07T22:01:28.157Z,10.09
2023-01-07T22:03:58.546Z,10.10
2023-01-07T22:06:36.596Z,10.11
2023-01-07T22:09:07.482Z,10.12
2023-01-07T22:11:38.507Z,10.11
2023-01-07T22:14:05.420Z,10.12
2023-01-07T22:16:32.771Z,10.13
2023-01-07T22:19:00.160Z,10.21
2023-01-07T22:21:27.444Z,10.23
2023-01-07T22:23:54.315Z,10.24
2023-01-07T22:26:21.915Z,10.23
2023-01-07T22:28:55.473Z,10.28
2023-01-07T22:31:28.821Z,10.29
2023-01-07T22:33:56.308Z,10.33
2023-01-07T22:36:35.105Z,10.42
2023-01-07T22:39:10.610Z,10.49
2023-01-07T22:41:37.777Z,10.52
2023-01-07T22:44:13.493Z,10.56
2023-01-07T22:46:45.584Z,10.58
2023-01-07T22:49:13.559Z,10.62
2023-01-07T22:51:45.488Z,10.68
2023-01-07T22:54:13.763Z,10.71
2023-01-07T22:56:41.762Z,10.70
2023-01-07T22:59:08.834Z,10.71
2023-01-07T23:01:37.650Z,10.70
2023-01-07T23:04:05.189Z,10.71
2023-01-07T23:06:32.094Z,10.73
2023-01-07T23:08:59.160Z,10.73
2023-01-07T23:11:44.741Z,10.76
2023-01-07T23:14:11.657Z,10.80
2023-01-07T23:16:38.599Z,10.82
2023-01-07T23:19:05.823Z,10.82
2023-01-07T23:21:33.048Z,10.86
2023-01-07T23:24:00.229Z,10.87
2023-01-07T23:26:27.050Z,10.89
2023-01-07T23:28:53.898Z,10.94
2023-01-07T23:31:20.874Z,10.96
2023-01-07T23:33:47.812Z,10.96
2023-01-07T23:36:14.786Z,10.97
2023-01-07T23:38:41.753Z,11.00
2023-01-07T23:41:10.993Z,11.07
2023-01-07T23:43:38.568Z,11.12
2023-01-07T23:46:07.609Z,11.14
2023-01-07T23:48:36.769Z,11.17
2023-01-07T23:51:06.239Z,11.17
2023-01-07T23:53:33.440Z,11.17
2023-01-07T23:56:00.602Z,11.14
2023-01-07T23:58:28.523Z,11.13
